Terminal Aerodrome Forecast
Issued by NWS Mt. Holly, NJ

Home | Current Version | Previous Version | Text Only | Print | Product List | Glossary On
Versions: 1 2 3 4 5 6 7 8 9 10 11 12 13 14 15 16 17 18 19 20 21 22 23 24 25
498
FTUS41 KPHI 250532
TAFRDG
TAF
KRDG 250532Z 2506/2606 08010KT P6SM RA OVC025
      TEMPO 2506/2508 -RA
     FM250800 07010KT 6SM RA BR OVC015
     FM250900 06010KT 3SM RA BR OVC008
     FM251500 10006KT 3SM -SHRA BR OVC008
     FM251600 10006KT 3SM -SHRA BR OVC015
     FM251700 11006KT P6SM OVC015
     FM252000 10006KT 4SM -SHRA BR OVC015 PROB30 2521/2524 TSRA
      OVC010CB=

USA.gov is the U.S. government's official web portal to all federal, state and local government web resources and services.